sensor_id;sensor_type;location;lat;lon;timestamp;pressure;altitude;pressure_sealevel;temperature;humidity
44131;BME280;29792;48.726;9.248;2023-03-16T00:00:55;97245.22;;;1.10;100.00
44131;BME280;29792;48.726;9.248;2023-03-16T00:03:20;97250.28;;;1.10;100.00
44131;BME280;29792;48.726;9.248;2023-03-16T00:05:50;97246.97;;;1.08;100.00
44131;BME280;29792;48.726;9.248;2023-03-16T00:08:16;97254.59;;;1.06;100.00
44131;BME280;29792;48.726;9.248;2023-03-16T00:10:42;97252.97;;;1.05;100.00
44131;BME280;29792;48.726;9.248;2023-03-16T00:13:17;97250.50;;;1.04;100.00
44131;BME280;29792;48.726;9.248;2023-03-16T00:15:55;97247.28;;;1.00;100.00
44131;BME280;29792;48.726;9.248;2023-03-16T00:18:22;97249.81;;;1.00;100.00
44131;BME280;29792;48.726;9.248;2023-03-16T00:20:53;97257.41;;;0.99;100.00
44131;BME280;29792;48.726;9.248;2023-03-16T00:23:19;97253.34;;;0.96;100.00
44131;BME280;29792;48.726;9.248;2023-03-16T00:25:51;97253.38;;;0.95;100.00
44131;BME280;29792;48.726;9.248;2023-03-16T00:28:17;97251.75;;;0.94;100.00
44131;BME280;29792;48.726;9.248;2023-03-16T00:30:43;97253.50;;;0.92;100.00
44131;BME280;29792;48.726;9.248;2023-03-16T00:33:11;97242.63;;;0.90;100.00
44131;BME280;29792;48.726;9.248;2023-03-16T00:35:36;97239.38;;;0.88;100.00
44131;BME280;29792;48.726;9.248;2023-03-16T00:38:01;97247.00;;;0.86;100.00
44131;BME280;29792;48.726;9.248;2023-03-16T00:40:27;97252.09;;;0.85;100.00
44131;BME280;29792;48.726;9.248;2023-03-16T00:42:54;97252.09;;;0.85;100.00
44131;BME280;29792;48.726;9.248;2023-03-16T00:45:19;97253.78;;;0.84;100.00
44131;BME280;29792;48.726;9.248;2023-03-16T00:47:45;97245.41;;;0.84;100.00
44131;BME280;29792;48.726;9.248;2023-03-16T00:50:10;97246.28;;;0.83;100.00
44131;BME280;29792;48.726;9.248;2023-03-16T00:52:35;97251.31;;;0.83;100.00
44131;BME280;29792;48.726;9.248;2023-03-16T00:55:01;97249.66;;;0.82;100.00
44131;BME280;29792;48.726;9.248;2023-03-16T00:57:28;97246.44;;;0.78;100.00
44131;BME280;29792;48.726;9.248;2023-03-16T00:59:54;97248.25;;;0.74;100.00
44131;BME280;29792;48.726;9.248;2023-03-16T01:02:20;97245.81;;;0.73;100.00
44131;BME280;29792;48.726;9.248;2023-03-16T01:04:49;97251.78;;;0.70;100.00
44131;BME280;29792;48.726;9.248;2023-03-16T01:07:15;97251.84;;;0.69;100.00
44131;BME280;29792;48.726;9.248;2023-03-16T01:09:41;97251.94;;;0.66;100.00
44131;BME280;29792;48.726;9.248;2023-03-16T01:12:10;97246.16;;;0.64;100.00
44131;BME280;29792;48.726;9.248;2023-03-16T01:14:36;97245.34;;;0.63;100.00
44131;BME280;29792;48.726;9.248;2023-03-16T01:17:04;97252.06;;;0.63;100.00
44131;BME280;29792;48.726;9.248;2023-03-16T01:19:32;97248.78;;;0.61;100.00
44131;BME280;29792;48.726;9.248;2023-03-16T01:22:01;97242.97;;;0.59;100.00
44131;BME280;29792;48.726;9.248;2023-03-16T01:24:27;97242.13;;;0.58;100.00
44131;BME280;29792;48.726;9.248;2023-03-16T01:26:52;97249.78;;;0.57;100.00
44131;BME280;29792;48.726;9.248;2023-03-16T01:29:18;97248.13;;;0.56;100.00
44131;BME280;29792;48.726;9.248;2023-03-16T01:31:44;97249.78;;;0.57;100.00
44131;BME280;29792;48.726;9.248;2023-03-16T01:34:09;97250.66;;;0.56;100.00
44131;BME280;29792;48.726;9.248;2023-03-16T01:36:40;97244.84;;;0.54;100.00
44131;BME280;29792;48.726;9.248;2023-03-16T01:39:05;97245.72;;;0.53;100.00
44131;BME280;29792;48.726;9.248;2023-03-16T01:41:31;97238.22;;;0.51;100.00
44131;BME280;29792;48.726;9.248;2023-03-16T01:43:56;97234.22;;;0.46;100.00
44131;BME280;29792;48.726;9.248;2023-03-16T01:46:27;97230.88;;;0.45;100.00
44131;BME280;29792;48.726;9.248;2023-03-16T01:49:06;97235.16;;;0.43;100.00
44131;BME280;29792;48.726;9.248;2023-03-16T01:51:45;97225.94;;;0.42;100.00
44131;BME280;29792;48.726;9.248;2023-03-16T01:54:29;97234.31;;;0.43;100.00
44131;BME280;29792;48.726;9.248;2023-03-16T01:57:00;97234.31;;;0.43;100.00
44131;BME280;29792;48.726;9.248;2023-03-16T01:59:31;97229.41;;;0.40;100.00
44131;BME280;29792;48.726;9.248;2023-03-16T02:01:57;97228.63;;;0.37;100.00
44131;BME280;29792;48.726;9.248;2023-03-16T02:04:46;97224.53;;;0.35;100.00
44131;BME280;29792;48.726;9.248;2023-03-16T02:07:14;97224.66;;;0.32;100.00
44131;BME280;29792;48.726;9.248;2023-03-16T02:09:44;97224.75;;;0.29;100.00
44131;BME280;29792;48.726;9.248;2023-03-16T02:12:15;97214.78;;;0.26;100.00
44131;BME280;29792;48.726;9.248;2023-03-16T02:14:49;97215.72;;;0.23;100.00
44131;BME280;29792;48.726;9.248;2023-03-16T02:17:18;97219.16;;;0.21;100.00
44131;BME280;29792;48.726;9.248;2023-03-16T02:22:36;97214.22;;;0.18;100.00
44131;BME280;29792;48.726;9.248;2023-03-16T02:25:03;97205.94;;;0.16;100.00
44131;BME280;29792;48.726;9.248;2023-03-16T02:30:07;97201.03;;;0.11;100.00
44131;BME280;29792;48.726;9.248;2023-03-16T02:32:33;97197.75;;;0.09;100.00
44131;BME280;29792;48.726;9.248;2023-03-16T02:35:01;97201.97;;;0.09;100.00
44131;BME280;29792;48.726;9.248;2023-03-16T02:37:27;97200.41;;;0.06;100.00
44131;BME280;29792;48.726;9.248;2023-03-16T02:39:53;97200.50;;;0.03;100.00
44131;BME280;29792;48.726;9.248;2023-03-16T02:42:20;97201.31;;;0.04;100.00
44131;BME280;29792;48.726;9.248;2023-03-16T02:44:49;97197.97;;;0.03;100.00
44131;BME280;29792;48.726;9.248;2023-03-16T02:47:26;97198.97;;;-0.01;100.00
44131;BME280;29792;48.726;9.248;2023-03-16T02:49:52;97202.31;;;-0.01;100.00
44131;BME280;29792;48.726;9.248;2023-03-16T02:52:17;97199.03;;;-0.03;100.00
44131;BME280;29792;48.726;9.248;2023-03-16T02:54:43;97197.38;;;-0.04;100.00
44131;BME280;29792;48.726;9.248;2023-03-16T02:57:08;97194.03;;;-0.04;100.00
44131;BME280;29792;48.726;9.248;2023-03-16T02:59:33;97191.50;;;-0.04;100.00
44131;BME280;29792;48.726;9.248;2023-03-16T03:01:58;97194.03;;;-0.04;100.00
44131;BME280;29792;48.726;9.248;2023-03-16T03:04:24;97190.75;;;-0.06;100.00
44131;BME280;29792;48.726;9.248;2023-03-16T03:06:50;97188.28;;;-0.08;100.00
44131;BME280;29792;48.726;9.248;2023-03-16T03:09:16;97181.53;;;-0.07;100.00
44131;BME280;29792;48.726;9.248;2023-03-16T03:11:42;97189.16;;;-0.09;100.00
44131;BME280;29792;48.726;9.248;2023-03-16T03:14:07;97185.88;;;-0.11;100.00
44131;BME280;29792;48.726;9.248;2023-03-16T03:16:33;97185.94;;;-0.12;100.00
44131;BME280;29792;48.726;9.248;2023-03-16T03:18:58;97175.84;;;-0.12;100.00
44131;BME280;29792;48.726;9.248;2023-03-16T03:21:24;97180.06;;;-0.13;100.00
44131;BME280;29792;48.726;9.248;2023-03-16T03:23:49;97185.97;;;-0.14;100.00
44131;BME280;29792;48.726;9.248;2023-03-16T03:26:15;97186.84;;;-0.15;100.00
44131;BME280;29792;48.726;9.248;2023-03-16T03:28:41;97188.53;;;-0.15;100.00
44131;BME280;29792;48.726;9.248;2023-03-16T03:31:19;97185.97;;;-0.14;100.00
44131;BME280;29792;48.726;9.248;2023-03-16T03:33:44;97184.31;;;-0.15;100.00
44131;BME280;29792;48.726;9.248;2023-03-16T03:36:10;97179.28;;;-0.15;100.00
44131;BME280;29792;48.726;9.248;2023-03-16T03:38:36;97165.84;;;-0.14;100.00
44131;BME280;29792;48.726;9.248;2023-03-16T03:41:02;97159.94;;;-0.13;100.00
44131;BME280;29792;48.726;9.248;2023-03-16T03:43:28;97154.91;;;-0.13;100.00
44131;BME280;29792;48.726;9.248;2023-03-16T03:45:57;97165.84;;;-0.14;100.00
44131;BME280;29792;48.726;9.248;2023-03-16T03:48:23;97156.63;;;-0.15;100.00
44131;BME280;29792;48.726;9.248;2023-03-16T03:50:49;97162.44;;;-0.13;100.00
44131;BME280;29792;48.726;9.248;2023-03-16T03:53:14;97159.06;;;-0.12;100.00
44131;BME280;29792;48.726;9.248;2023-03-16T03:55:39;97159.09;;;-0.13;100.00
44131;BME280;29792;48.726;9.248;2023-03-16T03:58:05;97160.81;;;-0.14;100.00
44131;BME280;29792;48.726;9.248;2023-03-16T04:00:30;97159.09;;;-0.13;100.00
44131;BME280;29792;48.726;9.248;2023-03-16T04:02:55;97151.59;;;-0.15;100.00
44131;BME280;29792;48.726;9.248;2023-03-16T04:05:21;97156.63;;;-0.15;100.00
44131;BME280;29792;48.726;9.248;2023-03-16T04:07:46;97148.22;;;-0.14;100.00
44131;BME280;29792;48.726;9.248;2023-03-16T04:10:12;97150.72;;;-0.14;100.00
44131;BME280;29792;48.726;9.248;2023-03-16T04:12:38;97149.97;;;-0.16;100.00
44131;BME280;29792;48.726;9.248;2023-03-16T04:15:04;97151.69;;;-0.16;100.00
44131;BME280;29792;48.726;9.248;2023-03-16T04:17:29;97152.47;;;-0.16;100.00
44131;BME280;29792;48.726;9.248;2023-03-16T04:19:54;97159.16;;;-0.15;100.00
44131;BME280;29792;48.726;9.248;2023-03-16T04:22:19;97151.69;;;-0.16;100.00
44131;BME280;29792;48.726;9.248;2023-03-16T04:24:47;97152.66;;;-0.20;100.00
44131;BME280;29792;48.726;9.248;2023-03-16T04:27:12;97146.75;;;-0.19;100.00
44131;BME280;29792;48.726;9.248;2023-03-16T04:29:37;97149.31;;;-0.21;100.00
44131;BME280;29792;48.726;9.248;2023-03-16T04:32:05;97147.66;;;-0.22;100.00
44131;BME280;29792;48.726;9.248;2023-03-16T04:34:30;97140.94;;;-0.21;100.00
44131;BME280;29792;48.726;9.248;2023-03-16T04:36:55;97141.00;;;-0.23;100.00
44131;BME280;29792;48.726;9.248;2023-03-16T04:39:21;97137.59;;;-0.22;100.00
44131;BME280;29792;48.726;9.248;2023-03-16T04:41:46;97137.56;;;-0.20;100.00
44131;BME280;29792;48.726;9.248;2023-03-16T04:44:11;97122.50;;;-0.22;100.00
44131;BME280;29792;48.726;9.248;2023-03-16T04:46:37;97124.16;;;-0.21;100.00
44131;BME280;29792;48.726;9.248;2023-03-16T04:49:03;97122.50;;;-0.22;100.00
44131;BME280;29792;48.726;9.248;2023-03-16T04:51:28;97121.69;;;-0.22;100.00
44131;BME280;29792;48.726;9.248;2023-03-16T04:53:53;97130.09;;;-0.23;100.00
44131;BME280;29792;48.726;9.248;2023-03-16T04:56:19;97132.63;;;-0.23;100.00
44131;BME280;29792;48.726;9.248;2023-03-16T04:58:46;97124.25;;;-0.24;100.00
44131;BME280;29792;48.726;9.248;2023-03-16T05:01:11;97129.34;;;-0.25;100.00
44131;BME280;29792;48.726;9.248;2023-03-16T05:03:37;97134.44;;;-0.27;100.00
44131;BME280;29792;48.726;9.248;2023-03-16T05:06:02;97137.78;;;-0.26;100.00
44131;BME280;29792;48.726;9.248;2023-03-16T05:08:29;97137.72;;;-0.25;100.00
44131;BME280;29792;48.726;9.248;2023-03-16T05:10:57;97132.69;;;-0.25;100.00
44131;BME280;29792;48.726;9.248;2023-03-16T05:13:23;97128.47;;;-0.24;100.00
44131;BME280;29792;48.726;9.248;2023-03-16T05:15:48;97128.47;;;-0.24;100.00
44131;BME280;29792;48.726;9.248;2023-03-16T05:18:14;97124.19;;;-0.22;100.00
44131;BME280;29792;48.726;9.248;2023-03-16T05:20:39;97122.50;;;-0.22;100.00
44131;BME280;29792;48.726;9.248;2023-03-16T05:23:05;97120.81;;;-0.21;100.00
44131;BME280;29792;48.726;9.248;2023-03-16T05:25:33;97119.94;;;-0.20;100.00
44131;BME280;29792;48.726;9.248;2023-03-16T05:27:58;97125.78;;;-0.20;100.00
44131;BME280;29792;48.726;9.248;2023-03-16T05:30:23;97126.63;;;-0.19;100.00
44131;BME280;29792;48.726;9.248;2023-03-16T05:32:48;97121.59;;;-0.19;100.00
44131;BME280;29792;48.726;9.248;2023-03-16T05:35:15;97122.41;;;-0.19;100.00
44131;BME280;29792;48.726;9.248;2023-03-16T05:37:41;97124.06;;;-0.18;100.00
44131;BME280;29792;48.726;9.248;2023-03-16T05:40:11;97119.88;;;-0.19;100.00
44131;BME280;29792;48.726;9.248;2023-03-16T05:42:48;97127.44;;;-0.19;100.00
44131;BME280;29792;48.726;9.248;2023-03-16T05:45:15;97127.31;;;-0.16;100.00
44131;BME280;29792;48.726;9.248;2023-03-16T05:47:41;97125.56;;;-0.14;100.00
44131;BME280;29792;48.726;9.248;2023-03-16T05:50:07;97122.19;;;-0.13;100.00
44131;BME280;29792;48.726;9.248;2023-03-16T05:52:39;97117.97;;;-0.12;100.00
44131;BME280;29792;48.726;9.248;2023-03-16T05:55:06;97113.72;;;-0.10;100.00
44131;BME280;29792;48.726;9.248;2023-03-16T05:57:32;97113.66;;;-0.09;100.00
44131;BME280;29792;48.726;9.248;2023-03-16T05:59:58;97114.34;;;-0.05;100.00
44131;BME280;29792;48.726;9.248;2023-03-16T06:02:24;97115.88;;;-0.01;100.00
44131;BME280;29792;48.726;9.248;2023-03-16T06:04:49;97114.13;;;0.01;100.00
44131;BME280;29792;48.726;9.248;2023-03-16T06:07:14;97116.59;;;0.03;100.00
44131;BME280;29792;48.726;9.248;2023-03-16T06:09:40;97110.63;;;0.05;100.00
44131;BME280;29792;48.726;9.248;2023-03-16T06:12:05;97111.41;;;0.07;100.00
44131;BME280;29792;48.726;9.248;2023-03-16T06:14:31;97115.56;;;0.08;100.00
44131;BME280;29792;48.726;9.248;2023-03-16T06:16:56;97107.06;;;0.11;100.00
44131;BME280;29792;48.726;9.248;2023-03-16T06:19:21;97115.28;;;0.16;100.00
44131;BME280;29792;48.726;9.248;2023-03-16T06:21:46;97117.66;;;0.19;100.00
44131;BME280;29792;48.726;9.248;2023-03-16T06:24:11;97121.72;;;0.23;100.00
44131;BME280;29792;48.726;9.248;2023-03-16T06:26:37;97115.66;;;0.27;100.00
44131;BME280;29792;48.726;9.248;2023-03-16T06:29:03;97117.22;;;0.31;100.00
44131;BME280;29792;48.726;9.248;2023-03-16T06:31:28;97116.97;;;0.37;100.00
44131;BME280;29792;48.726;9.248;2023-03-16T06:33:54;97124.34;;;0.42;100.00
44131;BME280;29792;48.726;9.248;2023-03-16T06:36:19;97121.63;;;0.48;100.00
44131;BME280;29792;48.726;9.248;2023-03-16T06:38:44;97118.91;;;0.52;100.00
44131;BME280;29792;48.726;9.248;2023-03-16T06:41:09;97127.19;;;0.56;100.00
44131;BME280;29792;48.726;9.248;2023-03-16T06:43:35;97126.16;;;0.60;100.00
44131;BME280;29792;48.726;9.248;2023-03-16T06:46:00;97120.97;;;0.64;100.00
44131;BME280;29792;48.726;9.248;2023-03-16T06:48:27;97120.72;;;0.70;100.00
44131;BME280;29792;48.726;9.248;2023-03-16T06:50:52;97118.81;;;0.75;100.00
44131;BME280;29792;48.726;9.248;2023-03-16T06:53:17;97127.72;;;0.84;100.00
44131;BME280;29792;48.726;9.248;2023-03-16T06:55:43;97117.47;;;0.89;100.00
44131;BME280;29792;48.726;9.248;2023-03-16T06:58:08;97127.38;;;0.93;100.00
44131;BME280;29792;48.726;9.248;2023-03-16T07:00:33;97126.28;;;0.99;100.00
44131;BME280;29792;48.726;9.248;2023-03-16T07:02:59;97126.13;;;1.03;100.00
44131;BME280;29792;48.726;9.248;2023-03-16T07:05:26;97129.22;;;1.10;100.00
44131;BME280;29792;48.726;9.248;2023-03-16T07:07:51;97124.78;;;1.15;100.00
44131;BME280;29792;48.726;9.248;2023-03-16T07:10:17;97129.59;;;1.21;100.00
44131;BME280;29792;48.726;9.248;2023-03-16T07:12:43;97123.53;;;1.25;100.00
44131;BME280;29792;48.726;9.248;2023-03-16T07:15:09;97124.16;;;1.30;100.00
44131;BME280;29792;48.726;9.248;2023-03-16T07:17:34;97127.25;;;1.37;100.00
44131;BME280;29792;48.726;9.248;2023-03-16T07:20:00;97133.69;;;1.44;100.00
44131;BME280;29792;48.726;9.248;2023-03-16T07:22:29;97132.53;;;1.51;100.00
44131;BME280;29792;48.726;9.248;2023-03-16T07:24:54;97141.44;;;1.60;100.00
44131;BME280;29792;48.726;9.248;2023-03-16T07:27:22;97139.34;;;1.69;100.00
44131;BME280;29792;48.726;9.248;2023-03-16T07:29:48;97135.50;;;1.79;100.00
44131;BME280;29792;48.726;9.248;2023-03-16T07:32:13;97136.69;;;1.91;100.00
44131;BME280;29792;48.726;9.248;2023-03-16T07:34:39;97136.31;;;2.00;100.00
44131;BME280;29792;48.726;9.248;2023-03-16T07:37:06;97137.38;;;2.13;100.00
44131;BME280;29792;48.726;9.248;2023-03-16T07:39:32;97135.97;;;2.26;100.00
44131;BME280;29792;48.726;9.248;2023-03-16T07:41:57;97130.22;;;2.42;100.00
44131;BME280;29792;48.726;9.248;2023-03-16T07:44:23;97127.03;;;2.55;100.00
44131;BME280;29792;48.726;9.248;2023-03-16T07:46:48;97133.91;;;2.71;100.00
44131;BME280;29792;48.726;9.248;2023-03-16T07:49:13;97133.94;;;2.88;100.00
44131;BME280;29792;48.726;9.248;2023-03-16T07:51:40;97135.91;;;3.00;100.00
44131;BME280;29792;48.726;9.248;2023-03-16T07:54:05;97137.00;;;3.12;100.00
44131;BME280;29792;48.726;9.248;2023-03-16T07:56:31;97132.25;;;3.23;100.00
44131;BME280;29792;48.726;9.248;2023-03-16T07:58:56;97135.88;;;3.34;100.00
44131;BME280;29792;48.726;9.248;2023-03-16T08:01:21;97138.56;;;3.49;100.00
44131;BME280;29792;48.726;9.248;2023-03-16T08:03:47;97140.47;;;3.61;100.00
44131;BME280;29792;48.726;9.248;2023-03-16T08:06:12;97139.03;;;3.72;100.00
44131;BME280;29792;48.726;9.248;2023-03-16T08:08:37;97126.63;;;3.83;100.00
44131;BME280;29792;48.726;9.248;2023-03-16T08:11:03;97134.25;;;3.99;100.00
44131;BME280;29792;48.726;9.248;2023-03-16T08:13:28;97137.00;;;4.12;100.00
44131;BME280;29792;48.726;9.248;2023-03-16T08:15:54;97137.97;;;4.25;100.00
44131;BME280;29792;48.726;9.248;2023-03-16T08:18:28;97139.88;;;4.37;100.00
44131;BME280;29792;48.726;9.248;2023-03-16T08:20:55;97145.75;;;4.53;100.00
44131;BME280;29792;48.726;9.248;2023-03-16T08:23:21;97140.75;;;4.68;100.00
44131;BME280;29792;48.726;9.248;2023-03-16T08:25:51;97143.34;;;4.82;100.00
44131;BME280;29792;48.726;9.248;2023-03-16T08:28:17;97143.50;;;4.94;100.00
44131;BME280;29792;48.726;9.248;2023-03-16T08:30:46;97139.09;;;5.12;100.00
44131;BME280;29792;48.726;9.248;2023-03-16T08:33:12;97137.44;;;5.27;100.00
44131;BME280;29792;48.726;9.248;2023-03-16T08:35:40;97130.56;;;5.43;100.00
44131;BME280;29792;48.726;9.248;2023-03-16T08:38:08;97129.56;;;5.60;100.00
44131;BME280;29792;48.726;9.248;2023-03-16T08:40:33;97130.22;;;5.78;100.00
44131;BME280;29792;48.726;9.248;2023-03-16T08:42:59;97128.53;;;5.92;100.00
44131;BME280;29792;48.726;9.248;2023-03-16T08:45:24;97126.00;;;6.06;100.00
44131;BME280;29792;48.726;9.248;2023-03-16T08:47:50;97125.06;;;6.22;100.00
44131;BME280;29792;48.726;9.248;2023-03-16T08:50:15;97122.66;;;6.47;100.00
44131;BME280;29792;48.726;9.248;2023-03-16T08:52:41;97116.16;;;6.82;100.00
44131;BME280;29792;48.726;9.248;2023-03-16T08:55:07;97110.66;;;7.28;100.00
44131;BME280;29792;48.726;9.248;2023-03-16T08:57:34;97114.97;;;7.78;100.00
44131;BME280;29792;48.726;9.248;2023-03-16T09:00:00;97116.56;;;8.17;99.53
44131;BME280;29792;48.726;9.248;2023-03-16T09:02:26;97113.91;;;8.55;97.45
44131;BME280;29792;48.726;9.248;2023-03-16T09:04:51;97103.84;;;8.89;94.97
44131;BME280;29792;48.726;9.248;2023-03-16T09:07:17;97106.97;;;9.16;92.87
44131;BME280;29792;48.726;9.248;2023-03-16T09:09:43;97095.63;;;9.42;90.11
44131;BME280;29792;48.726;9.248;2023-03-16T09:12:10;97099.19;;;9.64;88.69
44131;BME280;29792;48.726;9.248;2023-03-16T09:14:36;97096.16;;;9.92;87.48
44131;BME280;29792;48.726;9.248;2023-03-16T09:17:02;97103.25;;;10.11;85.87
44131;BME280;29792;48.726;9.248;2023-03-16T09:19:28;97112.34;;;10.26;82.66
44131;BME280;29792;48.726;9.248;2023-03-16T09:21:53;97099.28;;;10.40;82.11
44131;BME280;29792;48.726;9.248;2023-03-16T09:24:18;97099.97;;;10.53;80.07
44131;BME280;29792;48.726;9.248;2023-03-16T09:26:44;97102.25;;;10.56;77.72
44131;BME280;29792;48.726;9.248;2023-03-16T09:29:09;97098.78;;;10.57;76.70
44131;BME280;29792;48.726;9.248;2023-03-16T09:31:34;97097.13;;;10.56;75.14
44131;BME280;29792;48.726;9.248;2023-03-16T09:34:00;97090.84;;;10.60;76.18
44131;BME280;29792;48.726;9.248;2023-03-16T09:36:25;97082.47;;;10.58;74.27
44131;BME280;29792;48.726;9.248;2023-03-16T09:38:51;97083.63;;;10.54;73.11
44131;BME280;29792;48.726;9.248;2023-03-16T09:41:38;97078.06;;;10.49;72.01
44131;BME280;29792;48.726;9.248;2023-03-16T09:46:47;97097.41;;;10.53;73.03
44131;BME280;29792;48.726;9.248;2023-03-16T09:49:17;97090.75;;;10.62;73.74
44131;BME280;29792;48.726;9.248;2023-03-16T09:51:51;97088.94;;;10.74;72.66
44131;BME280;29792;48.726;9.248;2023-03-16T09:54:52;97079.00;;;10.80;72.44
44131;BME280;29792;48.726;9.248;2023-03-16T09:57:33;97065.94;;;10.94;73.41
44131;BME280;29792;48.726;9.248;2023-03-16T10:00:13;97060.78;;;11.15;72.33
44131;BME280;29792;48.726;9.248;2023-03-16T10:05:54;97056.19;;;11.60;70.06
44131;BME280;29792;48.726;9.248;2023-03-16T10:08:29;97062.50;;;11.77;68.89
44131;BME280;29792;48.726;9.248;2023-03-16T10:16:31;97061.06;;;11.94;63.07
44131;BME280;29792;48.726;9.248;2023-03-16T10:19:02;97060.19;;;12.04;64.08
44131;BME280;29792;48.726;9.248;2023-03-16T10:21:38;97066.47;;;12.31;64.83
44131;BME280;29792;48.726;9.248;2023-03-16T10:24:12;97065.69;;;12.40;62.15
44131;BME280;29792;48.726;9.248;2023-03-16T10:26:41;97067.72;;;12.55;60.98
44131;BME280;29792;48.726;9.248;2023-03-16T10:29:12;97069.78;;;12.71;58.10
44131;BME280;29792;48.726;9.248;2023-03-16T10:31:40;97064.63;;;12.90;58.92
44131;BME280;29792;48.726;9.248;2023-03-16T10:34:07;97054.84;;;13.32;58.83
44131;BME280;29792;48.726;9.248;2023-03-16T10:36:36;97053.91;;;13.80;56.48
44131;BME280;29792;48.726;9.248;2023-03-16T10:39:05;97043.03;;;14.41;56.43
44131;BME280;29792;48.726;9.248;2023-03-16T10:41:36;97038.00;;;15.10;54.32
44131;BME280;29792;48.726;9.248;2023-03-16T10:44:10;97046.28;;;15.99;51.88
44131;BME280;29792;48.726;9.248;2023-03-16T10:49:04;97037.94;;;16.88;47.20
44131;BME280;29792;48.726;9.248;2023-03-16T10:51:31;97047.47;;;16.96;47.63
44131;BME280;29792;48.726;9.248;2023-03-16T10:54:06;97038.28;;;16.93;47.79
44131;BME280;29792;48.726;9.248;2023-03-16T10:56:34;97038.09;;;17.11;47.08
44131;BME280;29792;48.726;9.248;2023-03-16T10:59:11;97030.09;;;17.69;47.48
44131;BME280;29792;48.726;9.248;2023-03-16T11:01:36;97029.09;;;18.17;45.97
44131;BME280;29792;48.726;9.248;2023-03-16T11:04:12;97018.72;;;18.79;45.06
44131;BME280;29792;48.726;9.248;2023-03-16T11:06:47;97019.41;;;19.48;43.84
44131;BME280;29792;48.726;9.248;2023-03-16T11:09:19;97007.78;;;20.39;42.00
44131;BME280;29792;48.726;9.248;2023-03-16T11:11:49;97005.38;;;21.29;40.51
44131;BME280;29792;48.726;9.248;2023-03-16T11:14:19;97002.97;;;21.96;39.15
44131;BME280;29792;48.726;9.248;2023-03-16T11:19:26;97016.84;;;22.71;35.83
44131;BME280;29792;48.726;9.248;2023-03-16T11:24:31;97014.47;;;23.62;33.44
44131;BME280;29792;48.726;9.248;2023-03-16T11:26:58;97008.72;;;24.04;33.80
44131;BME280;29792;48.726;9.248;2023-03-16T11:29:42;97012.66;;;24.26;32.18
44131;BME280;29792;48.726;9.248;2023-03-16T11:32:15;97001.41;;;24.57;32.36
44131;BME280;29792;48.726;9.248;2023-03-16T11:34:43;97004.81;;;24.96;32.34
44131;BME280;29792;48.726;9.248;2023-03-16T11:42:50;96995.63;;;26.09;30.32
44131;BME280;29792;48.726;9.248;2023-03-16T11:45:41;96995.31;;;26.66;28.45
44131;BME280;29792;48.726;9.248;2023-03-16T11:51:01;96987.41;;;26.66;27.89
44131;BME280;29792;48.726;9.248;2023-03-16T11:53:38;96981.47;;;26.70;28.11
44131;BME280;29792;48.726;9.248;2023-03-16T11:56:25;96987.44;;;26.77;27.62
44131;BME280;29792;48.726;9.248;2023-03-16T11:59:18;96982.09;;;26.42;28.02
44131;BME280;29792;48.726;9.248;2023-03-16T12:01:50;96978.56;;;26.48;27.54
44131;BME280;29792;48.726;9.248;2023-03-16T12:07:16;96955.44;;;26.39;27.19
44131;BME280;29792;48.726;9.248;2023-03-16T12:10:02;96963.50;;;25.16;28.86
44131;BME280;29792;48.726;9.248;2023-03-16T12:12:39;96964.00;;;23.54;29.62
44131;BME280;29792;48.726;9.248;2023-03-16T12:15:18;96954.31;;;22.30;30.93
44131;BME280;29792;48.726;9.248;2023-03-16T12:17:49;96945.75;;;21.47;33.13
44131;BME280;29792;48.726;9.248;2023-03-16T12:20:29;96932.59;;;20.72;35.03
44131;BME280;29792;48.726;9.248;2023-03-16T12:23:04;96938.31;;;20.03;34.89
44131;BME280;29792;48.726;9.248;2023-03-16T12:25:35;96934.19;;;19.43;36.57
44131;BME280;29792;48.726;9.248;2023-03-16T12:28:05;96932.59;;;18.90;37.14
44131;BME280;29792;48.726;9.248;2023-03-16T12:30:48;96931.09;;;18.36;37.13
44131;BME280;29792;48.726;9.248;2023-03-16T12:36:54;96946.94;;;17.48;41.48
44131;BME280;29792;48.726;9.248;2023-03-16T12:39:50;96943.91;;;17.20;38.98
44131;BME280;29792;48.726;9.248;2023-03-16T12:45:03;96936.88;;;16.73;40.18
44131;BME280;29792;48.726;9.248;2023-03-16T12:50:16;96936.72;;;16.75;40.46
44131;BME280;29792;48.726;9.248;2023-03-16T12:52:51;96932.38;;;16.75;40.76
44131;BME280;29792;48.726;9.248;2023-03-16T12:55:19;96933.97;;;16.76;42.26
44131;BME280;29792;48.726;9.248;2023-03-16T12:57:49;96929.28;;;16.64;41.08
44131;BME280;29792;48.726;9.248;2023-03-16T13:00:32;96912.31;;;16.53;40.74
44131;BME280;29792;48.726;9.248;2023-03-16T13:03:00;96915.19;;;16.50;41.61
44131;BME280;29792;48.726;9.248;2023-03-16T13:05:34;96918.44;;;16.44;42.51
44131;BME280;29792;48.726;9.248;2023-03-16T13:08:09;96928.78;;;16.44;43.23
44131;BME280;29792;48.726;9.248;2023-03-16T13:10:36;96919.72;;;16.48;42.69
44131;BME280;29792;48.726;9.248;2023-03-16T13:13:15;96903.88;;;16.84;42.88
44131;BME280;29792;48.726;9.248;2023-03-16T13:15:43;96912.69;;;17.61;43.32
44131;BME280;29792;48.726;9.248;2023-03-16T13:20:54;96901.94;;;20.46;38.18
44131;BME280;29792;48.726;9.248;2023-03-16T13:23:26;96907.00;;;21.92;34.93
44131;BME280;29792;48.726;9.248;2023-03-16T13:26:08;96903.09;;;22.22;34.53
44131;BME280;29792;48.726;9.248;2023-03-16T13:28:37;96908.34;;;22.95;33.45
44131;BME280;29792;48.726;9.248;2023-03-16T13:31:05;96906.84;;;23.51;32.24
44131;BME280;29792;48.726;9.248;2023-03-16T13:33:45;96909.84;;;23.62;30.35
44131;BME280;29792;48.726;9.248;2023-03-16T13:36:12;96902.66;;;23.31;31.03
44131;BME280;29792;48.726;9.248;2023-03-16T13:38:38;96901.13;;;22.57;31.94
44131;BME280;29792;48.726;9.248;2023-03-16T13:41:09;96896.72;;;21.70;31.15
44131;BME280;29792;48.726;9.248;2023-03-16T13:43:40;96891.06;;;20.64;32.49
44131;BME280;29792;48.726;9.248;2023-03-16T13:46:17;96889.78;;;20.10;34.08
44131;BME280;29792;48.726;9.248;2023-03-16T13:48:43;96884.59;;;19.74;34.80
44131;BME280;29792;48.726;9.248;2023-03-16T13:51:13;96891.63;;;19.59;34.73